createdAt,value
2023-03-18T00:02:20.105Z,99389.94
2023-03-18T00:04:47.762Z,99390.78
2023-03-18T00:07:15.511Z,99391.81
2023-03-18T00:09:43.376Z,99385.84
2023-03-18T00:12:12.434Z,99389.50
2023-03-18T00:14:40.083Z,99391.84
2023-03-18T00:17:08.010Z,99400.44
2023-03-18T00:19:35.640Z,99404.31
2023-03-18T00:22:03.788Z,99393.78
2023-03-18T00:24:31.533Z,99399.31
2023-03-18T00:26:59.128Z,99393.66
2023-03-18T00:29:28.190Z,99403.97
2023-03-18T00:31:56.098Z,99405.22
2023-03-18T00:34:23.692Z,99413.31
2023-03-18T00:36:56.803Z,99410.81
2023-03-18T00:39:26.423Z,99378.84
2023-03-18T00:41:56.215Z,99396.78
2023-03-18T00:44:25.204Z,99421.56
2023-03-18T00:46:54.249Z,99426.47
2023-03-18T00:49:21.901Z,99428.13
2023-03-18T00:51:49.584Z,99419.69
2023-03-18T00:54:18.496Z,99415.03
2023-03-18T00:56:46.864Z,99424.38
2023-03-18T00:59:14.981Z,99419.06
2023-03-18T01:01:43.682Z,99420.44
2023-03-18T01:04:12.813Z,99420.09
2023-03-18T01:06:40.447Z,99415.91
2023-03-18T01:09:11.696Z,99411.25
2023-03-18T01:11:40.385Z,99413.69
2023-03-18T01:14:08.702Z,99422.38
2023-03-18T01:16:36.567Z,99418.91
2023-03-18T01:19:04.939Z,99412.56
2023-03-18T01:21:34.712Z,99422.16
2023-03-18T01:24:04.432Z,99415.34
2023-03-18T01:26:34.481Z,99417.19
2023-03-18T01:29:03.655Z,99421.19
2023-03-18T01:31:34.562Z,99416.50
2023-03-18T01:34:06.762Z,99424.81
2023-03-18T01:36:46.246Z,99431.22
2023-03-18T01:39:15.178Z,99419.44
2023-03-18T01:41:43.082Z,99427.66
2023-03-18T01:44:17.426Z,99431.53
2023-03-18T01:46:48.264Z,99417.81
2023-03-18T01:49:20.856Z,99419.44
2023-03-18T01:51:54.171Z,99409.41
2023-03-18T01:54:23.972Z,99413.06
2023-03-18T01:56:53.818Z,99412.31
2023-03-18T01:59:24.750Z,99414.25
2023-03-18T02:01:55.989Z,99417.91
2023-03-18T02:04:31.079Z,99406.56
2023-03-18T02:07:01.234Z,99412.91
2023-03-18T02:09:29.607Z,99409.72
2023-03-18T02:11:57.623Z,99404.28
2023-03-18T02:14:27.637Z,99392.84
2023-03-18T02:17:03.903Z,99389.38
2023-03-18T02:19:55.423Z,99380.44
2023-03-18T02:22:31.972Z,99385.94
2023-03-18T02:25:14.048Z,99378.09
2023-03-18T02:27:45.987Z,99388.34
2023-03-18T02:30:18.931Z,99392.34
2023-03-18T02:32:51.814Z,99396.28
2023-03-18T02:35:20.654Z,99387.34
2023-03-18T02:37:49.297Z,99399.84
2023-03-18T02:40:21.903Z,99400.25
2023-03-18T02:42:51.437Z,99406.91
2023-03-18T02:45:36.731Z,99410.16
2023-03-18T02:48:16.069Z,99413.63
2023-03-18T02:50:44.011Z,99419.19
2023-03-18T02:53:13.782Z,99412.91
2023-03-18T02:55:42.362Z,99412.47
2023-03-18T02:58:11.538Z,99409.75
2023-03-18T03:00:40.970Z,99404.25
2023-03-18T03:03:08.821Z,99406.25
2023-03-18T03:05:36.916Z,99392.91
2023-03-18T03:08:05.036Z,99412.53
2023-03-18T03:10:37.689Z,99419.59
2023-03-18T03:13:07.384Z,99407.84
2023-03-18T03:15:36.911Z,99416.47
2023-03-18T03:18:05.224Z,99403.09
2023-03-18T03:20:35.376Z,99410.56
2023-03-18T03:23:04.085Z,99422.75
2023-03-18T03:25:32.360Z,99422.34
2023-03-18T03:28:00.248Z,99424.34
2023-03-18T03:30:28.566Z,99385.06
2023-03-18T03:33:01.378Z,99430.22
2023-03-18T03:35:29.186Z,99436.53
2023-03-18T03:37:56.821Z,99429.03
2023-03-18T03:40:25.977Z,99434.16
2023-03-18T03:42:53.674Z,99431.00
2023-03-18T03:45:21.291Z,99436.13
2023-03-18T03:47:49.292Z,99433.38
2023-03-18T03:50:19.421Z,99392.47
2023-03-18T03:52:47.162Z,99431.75
2023-03-18T03:55:17.560Z,99438.88
2023-03-18T03:57:45.757Z,99439.66
2023-03-18T04:00:16.535Z,99436.84
2023-03-18T04:02:50.039Z,99440.78
2023-03-18T04:05:23.470Z,99436.44
2023-03-18T04:07:52.442Z,99445.47
2023-03-18T04:10:26.391Z,99454.16
2023-03-18T04:12:54.316Z,99453.34
2023-03-18T04:15:23.009Z,99451.41
2023-03-18T04:17:53.717Z,99451.41
2023-03-18T04:20:22.944Z,99450.59
2023-03-18T04:22:51.344Z,99447.88
2023-03-18T04:25:22.078Z,99404.66
2023-03-18T04:27:53.500Z,99440.88
2023-03-18T04:30:23.352Z,99450.69
2023-03-18T04:33:10.796Z,99443.25
2023-03-18T04:35:42.993Z,99436.16
2023-03-18T04:38:12.831Z,99438.91
2023-03-18T04:40:40.962Z,99440.88
2023-03-18T04:43:09.882Z,99439.72
2023-03-18T04:45:37.946Z,99440.88
2023-03-18T04:48:06.397Z,99431.84
2023-03-18T04:50:38.874Z,99450.28
2023-03-18T04:53:11.235Z,99447.53
2023-03-18T04:55:39.482Z,99451.47
2023-03-18T04:58:09.615Z,99455.41
2023-03-18T05:00:42.435Z,99461.72
2023-03-18T05:03:21.773Z,99466.44
2023-03-18T05:05:50.589Z,99460.50
2023-03-18T05:08:23.649Z,99457.72
2023-03-18T05:10:52.339Z,99456.19
2023-03-18T05:13:20.420Z,99451.91
2023-03-18T05:15:48.584Z,99457.81
2023-03-18T05:18:17.073Z,99457.81
2023-03-18T05:20:48.852Z,99460.56
2023-03-18T05:23:18.543Z,99464.50
2023-03-18T05:25:55.957Z,99467.25
2023-03-18T05:28:27.039Z,99466.47
2023-03-18T05:31:20.971Z,99464.88
2023-03-18T05:33:48.987Z,99463.31
2023-03-18T05:36:17.399Z,99469.50
2023-03-18T05:38:55.494Z,99473.78
2023-03-18T05:41:25.674Z,99471.75
2023-03-18T05:43:54.158Z,99470.97
2023-03-18T05:46:22.785Z,99471.69
2023-03-18T05:48:59.776Z,99479.91
2023-03-18T05:51:32.444Z,99481.38
2023-03-18T05:54:01.330Z,99479.50
2023-03-18T05:56:35.083Z,99471.63
2023-03-18T05:59:06.545Z,99477.59
2023-03-18T06:01:46.965Z,99433.31
2023-03-18T06:04:15.312Z,99481.22
2023-03-18T06:06:43.456Z,99476.38
2023-03-18T06:09:13.218Z,99481.94
2023-03-18T06:11:45.468Z,99487.41
2023-03-18T06:14:14.325Z,99489.56
2023-03-18T06:16:43.276Z,99486.72
2023-03-18T06:19:13.056Z,99496.16
2023-03-18T06:21:42.025Z,99493.31
2023-03-18T06:24:10.665Z,99486.56
2023-03-18T06:26:39.741Z,99485.41
2023-03-18T06:29:10.723Z,99491.88
2023-03-18T06:31:39.689Z,99495.63
2023-03-18T06:34:10.111Z,99497.22
2023-03-18T06:36:40.205Z,99496.81
2023-03-18T06:39:13.916Z,99500.66
2023-03-18T06:41:42.702Z,99501.03
2023-03-18T06:44:31.772Z,99500.56
2023-03-18T06:47:08.851Z,99495.81
2023-03-18T06:49:39.721Z,99490.34
2023-03-18T06:52:13.487Z,99499.84
2023-03-18T06:54:44.469Z,99498.91
2023-03-18T06:57:12.390Z,99505.97
2023-03-18T06:59:41.950Z,99506.31
2023-03-18T07:02:11.137Z,99504.72
2023-03-18T07:04:38.927Z,99487.78
2023-03-18T07:07:07.134Z,99508.84
2023-03-18T07:09:37.486Z,99512.03
2023-03-18T07:12:06.360Z,99511.41
2023-03-18T07:14:34.084Z,99520.38
2023-03-18T07:17:03.878Z,99516.72
2023-03-18T07:19:32.983Z,99521.06
2023-03-18T07:22:02.287Z,99528.59
2023-03-18T07:24:30.359Z,99522.16
2023-03-18T07:26:58.743Z,99527.56
2023-03-18T07:29:26.368Z,99538.56
2023-03-18T07:31:54.036Z,99534.19
2023-03-18T07:34:23.344Z,99538.41
2023-03-18T07:36:51.010Z,99534.34
2023-03-18T07:39:18.672Z,99541.28
2023-03-18T07:41:46.320Z,99542.06
2023-03-18T07:44:21.711Z,99540.56
2023-03-18T07:46:49.355Z,99548.31
2023-03-18T07:49:17.036Z,99544.34
2023-03-18T07:51:46.056Z,99548.91
2023-03-18T07:54:14.214Z,99549.72
2023-03-18T07:56:41.862Z,99546.91
2023-03-18T07:59:10.318Z,99545.56
2023-03-18T08:01:38.998Z,99548.75
2023-03-18T08:04:06.896Z,99548.59
2023-03-18T08:06:34.996Z,99543.16
2023-03-18T08:09:04.930Z,99477.34
2023-03-18T08:11:33.741Z,99541.00
2023-03-18T08:14:01.573Z,99536.13
2023-03-18T08:16:29.569Z,99540.63
2023-03-18T08:18:57.197Z,99543.13
2023-03-18T08:21:24.931Z,99541.09
2023-03-18T08:23:52.589Z,99539.06
2023-03-18T08:26:21.532Z,99553.16
2023-03-18T08:28:49.207Z,99548.97
2023-03-18T08:31:16.862Z,99545.84
2023-03-18T08:33:44.547Z,99550.19
2023-03-18T08:36:12.228Z,99555.81
2023-03-18T08:38:39.976Z,99558.63
2023-03-18T08:41:07.704Z,99538.91
2023-03-18T08:43:38.958Z,99571.81
2023-03-18T08:46:07.099Z,99559.41
2023-03-18T08:48:35.039Z,99562.91
2023-03-18T08:51:04.819Z,99558.19
2023-03-18T08:53:32.497Z,99569.44
2023-03-18T08:56:02.848Z,99554.50
2023-03-18T08:58:30.600Z,99550.31
2023-03-18T09:00:59.597Z,99554.13
2023-03-18T09:03:27.421Z,99549.41
2023-03-18T09:05:55.405Z,99564.25
2023-03-18T09:08:23.557Z,99556.84
2023-03-18T09:10:53.359Z,99563.03
2023-03-18T09:13:21.269Z,99562.88
2023-03-18T09:15:48.983Z,99562.09
2023-03-18T09:18:19.178Z,99561.75
2023-03-18T09:20:47.409Z,99564.00
2023-03-18T09:23:18.159Z,99481.63
2023-03-18T09:25:46.838Z,99554.78
2023-03-18T09:28:14.814Z,99550.13
2023-03-18T09:30:42.632Z,99551.22
2023-03-18T09:33:11.706Z,99548.16
2023-03-18T09:35:41.164Z,99543.94
2023-03-18T09:38:09.083Z,99537.78
2023-03-18T09:40:38.831Z,99529.16
2023-03-18T09:43:21.711Z,99532.00
2023-03-18T09:45:59.956Z,99531.69
2023-03-18T09:48:49.201Z,99538.50
2023-03-18T09:51:34.902Z,99527.88
2023-03-18T09:54:06.857Z,99531.53
2023-03-18T09:56:37.693Z,99542.50
2023-03-18T09:59:12.972Z,99535.44
2023-03-18T10:01:42.062Z,99528.38
2023-03-18T10:04:18.180Z,99529.28
2023-03-18T10:06:50.046Z,99529.50
2023-03-18T10:09:24.286Z,99521.84
2023-03-18T10:11:54.766Z,99521.22
2023-03-18T10:14:36.251Z,99515.19
2023-03-18T10:17:13.345Z,99521.63
2023-03-18T10:19:46.293Z,99527.03
2023-03-18T10:22:29.840Z,99530.06
2023-03-18T10:25:04.614Z,99531.88
2023-03-18T10:27:42.755Z,99528.75
2023-03-18T10:30:29.993Z,99524.56
2023-03-18T10:33:04.905Z,99525.38
2023-03-18T10:35:39.654Z,99520.91
2023-03-18T10:38:19.129Z,99533.41
2023-03-18T10:40:47.915Z,99518.47
2023-03-18T10:43:19.397Z,99521.25
2023-03-18T10:45:48.647Z,99521.09
2023-03-18T10:48:22.209Z,99514.47
2023-03-18T10:51:01.907Z,99507.03
2023-03-18T10:53:39.116Z,99507.50
2023-03-18T10:56:10.335Z,99517.41
2023-03-18T10:58:39.123Z,99527.97
2023-03-18T11:01:08.671Z,99522.00
2023-03-18T11:03:42.059Z,99518.88
2023-03-18T11:06:19.027Z,99513.69
2023-03-18T11:08:50.241Z,99524.59
2023-03-18T11:11:26.761Z,99516.47
2023-03-18T11:13:56.243Z,99519.94
2023-03-18T11:16:31.803Z,99498.19
2023-03-18T11:18:59.865Z,99508.66
2023-03-18T11:21:29.645Z,99517.59
2023-03-18T11:24:10.575Z,99510.88
2023-03-18T11:26:53.416Z,99510.41
2023-03-18T11:29:24.904Z,99505.50
2023-03-18T11:31:57.984Z,99499.47
2023-03-18T11:34:26.982Z,99504.38
2023-03-18T11:36:59.042Z,99505.78
2023-03-18T11:39:31.120Z,99503.31
2023-03-18T11:42:00.256Z,99495.03
2023-03-18T11:44:33.082Z,99507.44
2023-03-18T11:47:05.685Z,99491.16
2023-03-18T11:49:34.391Z,99448.19
2023-03-18T11:52:29.428Z,99497.41
2023-03-18T11:55:31.709Z,99495.41
2023-03-18T11:58:25.935Z,99500.41
2023-03-18T12:01:01.578Z,99485.13
2023-03-18T12:03:56.708Z,99490.06
2023-03-18T12:06:26.111Z,99488.56
2023-03-18T12:09:04.963Z,99478.53
2023-03-18T12:11:48.826Z,99487.34
2023-03-18T12:14:25.783Z,99463.84
2023-03-18T12:17:03.764Z,99477.91
2023-03-18T12:19:46.791Z,99466.34
2023-03-18T12:22:28.917Z,99469.72
2023-03-18T12:25:14.025Z,99467.09
2023-03-18T12:27:53.478Z,99463.47
2023-03-18T12:30:39.427Z,99462.25
2023-03-18T12:33:24.060Z,99460.09
2023-03-18T12:36:00.675Z,99450.50
2023-03-18T12:38:45.797Z,99446.72
2023-03-18T12:41:18.415Z,99449.44
2023-03-18T12:44:03.855Z,99452.88
2023-03-18T12:46:34.817Z,99457.94
2023-03-18T12:49:09.645Z,99447.50
2023-03-18T12:51:44.794Z,99458.84
2023-03-18T12:54:18.953Z,99448.72
2023-03-18T12:56:52.827Z,99440.63
2023-03-18T12:59:29.050Z,99449.44
2023-03-18T13:02:13.232Z,99458.56
2023-03-18T13:04:49.989Z,99449.84
2023-03-18T13:07:24.046Z,99445.63
2023-03-18T13:09:59.457Z,99444.84
2023-03-18T13:12:31.623Z,99439.81
2023-03-18T13:15:03.448Z,99438.09
2023-03-18T13:17:34.067Z,99439.06
2023-03-18T13:20:03.616Z,99437.25
2023-03-18T13:23:01.761Z,99434.00
2023-03-18T13:25:37.852Z,99427.28
2023-03-18T13:28:17.334Z,99429.44
2023-03-18T13:30:59.264Z,99424.47
2023-03-18T13:33:58.630Z,99431.69
2023-03-18T13:36:43.565Z,99419.56
2023-03-18T13:39:24.355Z,99430.06
2023-03-18T13:42:19.961Z,99432.06
2023-03-18T13:44:55.210Z,99432.00
2023-03-18T13:47:25.508Z,99437.19
2023-03-18T13:50:01.140Z,99429.22
2023-03-18T13:52:36.978Z,99426.56
2023-03-18T13:55:09.051Z,99428.03
2023-03-18T13:57:48.514Z,99421.41
2023-03-18T14:00:30.427Z,99426.16
2023-03-18T14:03:07.268Z,99414.38
2023-03-18T14:05:41.662Z,99419.53
2023-03-18T14:08:35.188Z,99426.66
2023-03-18T14:11:51.152Z,99415.06
2023-03-18T14:14:56.685Z,99414.09
2023-03-18T14:17:33.500Z,99411.56
2023-03-18T14:20:21.385Z,99411.97
2023-03-18T14:22:51.150Z,99409.00
2023-03-18T14:25:37.556Z,99405.53
2023-03-18T14:28:21.410Z,99406.31
2023-03-18T14:30:57.008Z,99412.00
2023-03-18T14:33:34.363Z,99403.31
2023-03-18T14:36:09.806Z,99407.75
2023-03-18T14:38:43.390Z,99366.66
2023-03-18T14:41:22.372Z,99411.53
2023-03-18T14:44:07.588Z,99405.03
2023-03-18T14:46:41.276Z,99392.03
2023-03-18T14:49:42.811Z,99402.00
2023-03-18T14:52:24.030Z,99409.41
2023-03-18T14:54:55.013Z,99400.94
2023-03-18T14:57:23.234Z,99403.28
2023-03-18T14:59:51.433Z,99393.69
2023-03-18T15:02:26.923Z,99394.09
2023-03-18T15:04:57.051Z,99393.63
2023-03-18T15:07:35.311Z,99396.78
2023-03-18T15:10:08.602Z,99399.94
2023-03-18T15:12:37.224Z,99390.72
2023-03-18T15:15:05.476Z,99390.94
2023-03-18T15:17:33.392Z,99385.19
2023-03-18T15:20:01.630Z,99385.03
2023-03-18T15:22:34.726Z,99390.47
2023-03-18T15:25:05.748Z,99377.13
2023-03-18T15:27:35.862Z,99381.16
2023-03-18T15:30:06.674Z,99384.25
2023-03-18T15:32:45.494Z,99363.50
2023-03-18T15:35:18.288Z,99381.22
2023-03-18T15:38:03.112Z,99380.19
2023-03-18T15:40:32.821Z,99379.03
2023-03-18T15:43:06.831Z,99391.03
2023-03-18T15:45:35.449Z,99373.59
2023-03-18T15:48:08.883Z,99369.16
2023-03-18T15:50:37.212Z,99368.66
2023-03-18T15:53:21.472Z,99370.78
2023-03-18T15:55:51.416Z,99371.34
2023-03-18T15:58:23.816Z,99367.78
2023-03-18T16:00:52.488Z,99344.28
2023-03-18T16:03:23.361Z,99369.25
2023-03-18T16:05:52.852Z,99367.00
2023-03-18T16:08:23.652Z,99366.34
2023-03-18T16:10:54.595Z,99369.03
2023-03-18T16:13:25.067Z,99368.81
2023-03-18T16:15:53.924Z,99367.56
2023-03-18T16:18:22.673Z,99375.03
2023-03-18T16:20:51.323Z,99370.44
2023-03-18T16:23:19.623Z,99366.66
2023-03-18T16:25:51.029Z,99370.31
2023-03-18T16:28:21.267Z,99364.94
2023-03-18T16:30:51.995Z,99368.38
2023-03-18T16:33:21.578Z,99372.06
2023-03-18T16:35:58.436Z,99372.31
2023-03-18T16:38:26.979Z,99372.94
2023-03-18T16:40:57.499Z,99375.31
2023-03-18T16:43:28.019Z,99376.13
2023-03-18T16:45:59.346Z,99342.16
2023-03-18T16:48:27.977Z,99375.13
2023-03-18T16:50:57.219Z,99384.50
2023-03-18T16:53:28.568Z,99383.09
2023-03-18T16:55:59.813Z,99384.22
2023-03-18T16:58:31.309Z,99386.94
2023-03-18T17:00:59.945Z,99387.19
2023-03-18T17:03:29.274Z,99393.66
2023-03-18T17:05:57.326Z,99394.66
2023-03-18T17:08:25.034Z,99389.59
2023-03-18T17:11:01.648Z,99393.72
2023-03-18T17:13:32.199Z,99389.66
2023-03-18T17:15:59.864Z,99382.31
2023-03-18T17:18:28.004Z,99400.66
2023-03-18T17:20:55.779Z,99401.28
2023-03-18T17:23:26.991Z,99402.69
2023-03-18T17:25:56.733Z,99407.66
2023-03-18T17:28:31.149Z,99408.78
2023-03-18T17:30:58.849Z,99370.69
2023-03-18T17:33:28.927Z,99412.94
2023-03-18T17:35:56.876Z,99417.78
2023-03-18T17:38:24.835Z,99413.94
2023-03-18T17:40:52.779Z,99417.25
2023-03-18T17:43:27.464Z,99416.34
2023-03-18T17:45:57.323Z,99422.19
2023-03-18T17:48:27.276Z,99413.91
2023-03-18T17:50:57.339Z,99376.38
2023-03-18T17:53:28.442Z,99414.25
2023-03-18T17:55:57.131Z,99421.00
2023-03-18T17:58:27.355Z,99382.97
2023-03-18T18:01:02.198Z,99427.81
2023-03-18T18:03:31.170Z,99416.84
2023-03-18T18:06:00.172Z,99423.16
2023-03-18T18:08:30.183Z,99417.19
2023-03-18T18:11:04.174Z,99420.88
2023-03-18T18:13:32.246Z,99426.47
2023-03-18T18:16:01.298Z,99410.91
2023-03-18T18:18:29.433Z,99419.91
2023-03-18T18:20:58.972Z,99420.38
2023-03-18T18:23:30.248Z,99419.72
2023-03-18T18:25:59.796Z,99420.88
2023-03-18T18:28:32.869Z,99392.63
2023-03-18T18:31:03.402Z,99422.88
2023-03-18T18:33:32.166Z,99423.25
2023-03-18T18:35:59.962Z,99426.72
2023-03-18T18:38:28.344Z,99424.81
2023-03-18T18:40:57.383Z,99424.34
2023-03-18T18:43:26.286Z,99428.25
2023-03-18T18:45:55.805Z,99428.34
2023-03-18T18:48:29.798Z,99433.03
2023-03-18T18:50:58.483Z,99429.91
2023-03-18T18:53:28.078Z,99437.38
2023-03-18T18:55:58.100Z,99432.25
2023-03-18T18:58:29.686Z,99438.19
2023-03-18T19:00:58.050Z,99434.69
2023-03-18T19:03:31.419Z,99438.72
2023-03-18T19:06:00.871Z,99405.31
2023-03-18T19:08:31.649Z,99440.31
2023-03-18T19:11:01.317Z,99442.19
2023-03-18T19:13:30.965Z,99437.06
2023-03-18T19:16:01.855Z,99438.00
2023-03-18T19:18:36.086Z,99445.81
2023-03-18T19:21:03.770Z,99443.50
2023-03-18T19:23:33.185Z,99451.28
2023-03-18T19:26:02.136Z,99446.53
2023-03-18T19:28:58.411Z,99454.44
2023-03-18T19:31:31.171Z,99453.59
2023-03-18T19:34:02.120Z,99456.72
2023-03-18T19:36:32.512Z,99457.97
2023-03-18T19:39:01.935Z,99455.13
2023-03-18T19:41:30.204Z,99459.91
2023-03-18T19:44:03.783Z,99453.59
2023-03-18T19:46:36.952Z,99453.59
2023-03-18T19:49:12.698Z,99416.00
2023-03-18T19:51:40.366Z,99457.56
2023-03-18T19:54:23.481Z,99458.38
2023-03-18T19:56:52.539Z,99454.50
2023-03-18T19:59:22.755Z,99456.13
2023-03-18T20:01:51.399Z,99456.47
2023-03-18T20:04:21.535Z,99458.88
2023-03-18T20:06:50.296Z,99469.91
2023-03-18T20:09:18.674Z,99473.41
2023-03-18T20:11:47.649Z,99375.97
2023-03-18T20:14:22.834Z,99470.25
2023-03-18T20:16:50.494Z,99469.03
2023-03-18T20:19:18.118Z,99477.34
2023-03-18T20:21:48.638Z,99483.56
2023-03-18T20:24:19.972Z,99480.84
2023-03-18T20:26:47.709Z,99476.47
2023-03-18T20:29:17.894Z,99482.75
2023-03-18T20:31:45.852Z,99483.56
2023-03-18T20:34:13.844Z,99483.59
2023-03-18T20:36:42.005Z,99476.06
2023-03-18T20:39:19.775Z,99483.56
2023-03-18T20:41:47.533Z,99482.44
2023-03-18T20:44:15.284Z,99481.31
2023-03-18T20:46:43.168Z,99472.28
2023-03-18T20:49:10.877Z,99475.03
2023-03-18T20:51:41.068Z,99471.50
2023-03-18T20:54:18.619Z,99491.16
2023-03-18T20:56:46.640Z,99488.00
2023-03-18T20:59:14.662Z,99485.25
2023-03-18T21:01:42.796Z,99477.34
2023-03-18T21:04:12.659Z,99486.44
2023-03-18T21:06:41.241Z,99492.38
2023-03-18T21:09:10.026Z,99485.28
2023-03-18T21:11:39.131Z,99492.75
2023-03-18T21:14:06.768Z,99486.88
2023-03-18T21:16:37.589Z,99491.63
2023-03-18T21:19:05.526Z,99490.03
2023-03-18T21:21:38.249Z,99495.13
2023-03-18T21:24:23.571Z,99494.38
2023-03-18T21:27:03.792Z,99486.50
2023-03-18T21:29:32.724Z,99492.00
2023-03-18T21:32:02.372Z,99486.91
2023-03-18T21:34:30.432Z,99485.72
2023-03-18T21:36:58.057Z,99485.31
2023-03-18T21:39:25.839Z,99492.41
2023-03-18T21:41:55.055Z,99495.16
2023-03-18T21:44:22.839Z,99492.41
2023-03-18T21:46:50.414Z,99497.13
2023-03-18T21:49:17.991Z,99497.13
2023-03-18T21:51:45.628Z,99504.19
2023-03-18T21:54:18.932Z,99508.94
2023-03-18T21:56:46.704Z,99508.13
2023-03-18T21:59:15.857Z,99513.25
2023-03-18T22:01:43.850Z,99514.44
2023-03-18T22:04:12.562Z,99416.13
2023-03-18T22:06:40.343Z,99513.28
2023-03-18T22:09:08.620Z,99503.81
2023-03-18T22:11:36.309Z,99501.06
2023-03-18T22:14:03.928Z,99495.94
2023-03-18T22:16:32.990Z,99499.44
2023-03-18T22:19:00.737Z,99493.97
2023-03-18T22:21:29.314Z,99434.97
2023-03-18T22:23:58.076Z,99488.06
2023-03-18T22:26:25.801Z,99493.91
2023-03-18T22:28:53.471Z,99486.38
2023-03-18T22:31:23.971Z,99489.91
2023-03-18T22:33:53.451Z,99487.13
2023-03-18T22:36:22.575Z,99495.41
2023-03-18T22:38:50.400Z,99481.59
2023-03-18T22:41:21.963Z,99503.94
2023-03-18T22:43:50.259Z,99509.00
2023-03-18T22:46:18.052Z,99502.28
2023-03-18T22:48:45.978Z,99517.16
2023-03-18T22:51:22.884Z,99513.56
2023-03-18T22:53:52.468Z,99513.19
2023-03-18T22:56:21.147Z,99520.25
2023-03-18T22:58:48.841Z,99524.13
2023-03-18T23:01:18.703Z,99524.09
2023-03-18T23:03:47.326Z,99528.28
2023-03-18T23:06:16.665Z,99531.31
2023-03-18T23:08:46.490Z,99507.72
2023-03-18T23:11:15.095Z,99535.31
2023-03-18T23:13:44.212Z,99535.66
2023-03-18T23:16:16.373Z,99533.00
2023-03-18T23:18:44.182Z,99527.91
2023-03-18T23:21:17.347Z,99536.91
2023-03-18T23:23:46.407Z,99528.31
2023-03-18T23:26:14.120Z,99529.53
2023-03-18T23:28:44.990Z,99536.72
2023-03-18T23:31:13.375Z,99539.09
2023-03-18T23:33:41.189Z,99535.66
2023-03-18T23:36:09.703Z,99532.41
2023-03-18T23:38:37.915Z,99541.09
2023-03-18T23:41:07.319Z,99532.41
2023-03-18T23:43:35.012Z,99535.66
2023-03-18T23:46:03.613Z,99543.56
2023-03-18T23:48:31.858Z,99534.56
2023-03-18T23:50:59.553Z,99540.88
2023-03-18T23:53:27.264Z,99540.09
2023-03-18T23:55:54.868Z,99533.91
2023-03-18T23:58:23.813Z,99543.75
